sensor_id;sensor_type;location;lat;lon;timestamp;P1;durP1;ratioP1;P2;durP2;ratioP2
22234;SDS011;11286;45.596;5.284;2022-08-21T00:00:53;2.25;;;0.90;;
22234;SDS011;11286;45.596;5.284;2022-08-21T00:03:19;3.80;;;1.42;;
22234;SDS011;11286;45.596;5.284;2022-08-21T00:05:49;3.35;;;1.20;;
22234;SDS011;11286;45.596;5.284;2022-08-21T00:08:16;1.38;;;1.15;;
22234;SDS011;11286;45.596;5.284;2022-08-21T00:10:43;2.45;;;1.20;;
22234;SDS011;11286;45.596;5.284;2022-08-21T00:13:10;2.08;;;1.27;;
22234;SDS011;11286;45.596;5.284;2022-08-21T00:15:37;2.78;;;1.50;;
22234;SDS011;11286;45.596;5.284;2022-08-21T00:18:04;3.00;;;1.40;;
22234;SDS011;11286;45.596;5.284;2022-08-21T00:20:31;7.55;;;1.30;;
22234;SDS011;11286;45.596;5.284;2022-08-21T00:22:58;4.65;;;1.30;;
22234;SDS011;11286;45.596;5.284;2022-08-21T00:25:24;3.40;;;1.40;;
22234;SDS011;11286;45.596;5.284;2022-08-21T00:27:49;3.17;;;1.30;;
22234;SDS011;11286;45.596;5.284;2022-08-21T00:30:17;1.92;;;1.15;;
22234;SDS011;11286;45.596;5.284;2022-08-21T00:32:44;2.63;;;1.15;;
22234;SDS011;11286;45.596;5.284;2022-08-21T00:35:13;1.77;;;1.23;;
22234;SDS011;11286;45.596;5.284;2022-08-21T00:37:41;1.23;;;1.10;;
22234;SDS011;11286;45.596;5.284;2022-08-21T00:40:08;4.38;;;1.30;;
22234;SDS011;11286;45.596;5.284;2022-08-21T00:42:38;4.22;;;1.10;;
22234;SDS011;11286;45.596;5.284;2022-08-21T00:45:04;1.50;;;1.10;;
22234;SDS011;11286;45.596;5.284;2022-08-21T00:47:31;1.92;;;1.30;;
22234;SDS011;11286;45.596;5.284;2022-08-21T00:49:57;3.35;;;1.13;;
22234;SDS011;11286;45.596;5.284;2022-08-21T00:52:24;3.83;;;1.35;;
22234;SDS011;11286;45.596;5.284;2022-08-21T00:54:53;3.05;;;1.20;;
22234;SDS011;11286;45.596;5.284;2022-08-21T00:57:21;1.52;;;1.10;;
22234;SDS011;11286;45.596;5.284;2022-08-21T00:59:51;2.67;;;1.20;;
22234;SDS011;11286;45.596;5.284;2022-08-21T01:02:19;2.08;;;1.20;;
22234;SDS011;11286;45.596;5.284;2022-08-21T01:04:45;2.50;;;1.10;;
22234;SDS011;11286;45.596;5.284;2022-08-21T01:07:11;3.92;;;1.38;;
22234;SDS011;11286;45.596;5.284;2022-08-21T01:09:37;7.68;;;1.58;;
22234;SDS011;11286;45.596;5.284;2022-08-21T01:12:04;5.50;;;1.20;;
22234;SDS011;11286;45.596;5.284;2022-08-21T01:14:30;2.47;;;1.30;;
22234;SDS011;11286;45.596;5.284;2022-08-21T01:16:56;2.17;;;1.40;;
22234;SDS011;11286;45.596;5.284;2022-08-21T01:19:24;2.78;;;1.17;;
22234;SDS011;11286;45.596;5.284;2022-08-21T01:21:53;2.35;;;1.55;;
22234;SDS011;11286;45.596;5.284;2022-08-21T01:24:19;2.22;;;1.23;;
22234;SDS011;11286;45.596;5.284;2022-08-21T01:26:46;4.00;;;1.30;;
22234;SDS011;11286;45.596;5.284;2022-08-21T01:29:19;3.22;;;1.42;;
22234;SDS011;11286;45.596;5.284;2022-08-21T01:31:48;2.00;;;1.20;;
22234;SDS011;11286;45.596;5.284;2022-08-21T01:34:15;2.08;;;1.30;;
22234;SDS011;11286;45.596;5.284;2022-08-21T01:36:41;1.83;;;1.10;;
22234;SDS011;11286;45.596;5.284;2022-08-21T01:39:10;1.83;;;1.33;;
22234;SDS011;11286;45.596;5.284;2022-08-21T01:41:36;3.42;;;1.23;;
22234;SDS011;11286;45.596;5.284;2022-08-21T01:44:03;2.97;;;1.52;;
22234;SDS011;11286;45.596;5.284;2022-08-21T01:46:29;4.05;;;1.33;;
22234;SDS011;11286;45.596;5.284;2022-08-21T01:48:54;3.58;;;1.40;;
22234;SDS011;11286;45.596;5.284;2022-08-21T01:51:20;4.15;;;1.30;;
22234;SDS011;11286;45.596;5.284;2022-08-21T01:53:45;7.22;;;1.52;;
22234;SDS011;11286;45.596;5.284;2022-08-21T01:56:12;1.38;;;1.20;;
22234;SDS011;11286;45.596;5.284;2022-08-21T01:58:41;3.30;;;1.40;;
22234;SDS011;11286;45.596;5.284;2022-08-21T02:01:08;5.72;;;1.30;;
22234;SDS011;11286;45.596;5.284;2022-08-21T02:03:35;2.88;;;1.30;;
22234;SDS011;11286;45.596;5.284;2022-08-21T02:06:02;2.30;;;1.23;;
22234;SDS011;11286;45.596;5.284;2022-08-21T02:08:29;5.10;;;1.58;;
22234;SDS011;11286;45.596;5.284;2022-08-21T02:10:54;3.70;;;1.30;;
22234;SDS011;11286;45.596;5.284;2022-08-21T02:13:20;3.20;;;1.30;;
22234;SDS011;11286;45.596;5.284;2022-08-21T02:15:45;3.33;;;1.40;;
22234;SDS011;11286;45.596;5.284;2022-08-21T02:18:11;3.42;;;1.40;;
22234;SDS011;11286;45.596;5.284;2022-08-21T02:20:39;2.38;;;1.50;;
22234;SDS011;11286;45.596;5.284;2022-08-21T02:23:07;2.05;;;1.30;;
22234;SDS011;11286;45.596;5.284;2022-08-21T02:25:33;3.55;;;1.38;;
22234;SDS011;11286;45.596;5.284;2022-08-21T02:28:01;4.68;;;1.50;;
22234;SDS011;11286;45.596;5.284;2022-08-21T02:30:32;2.70;;;1.42;;
22234;SDS011;11286;45.596;5.284;2022-08-21T02:33:00;3.17;;;1.33;;
22234;SDS011;11286;45.596;5.284;2022-08-21T02:35:26;1.92;;;1.50;;
22234;SDS011;11286;45.596;5.284;2022-08-21T02:37:54;4.05;;;1.48;;
22234;SDS011;11286;45.596;5.284;2022-08-21T02:40:23;2.85;;;1.40;;
22234;SDS011;11286;45.596;5.284;2022-08-21T02:42:51;2.40;;;1.40;;
22234;SDS011;11286;45.596;5.284;2022-08-21T02:45:17;4.40;;;1.60;;
22234;SDS011;11286;45.596;5.284;2022-08-21T02:47:49;3.80;;;1.38;;
22234;SDS011;11286;45.596;5.284;2022-08-21T02:50:22;1.88;;;1.30;;
22234;SDS011;11286;45.596;5.284;2022-08-21T02:52:50;2.72;;;1.48;;
22234;SDS011;11286;45.596;5.284;2022-08-21T02:55:17;4.45;;;1.40;;
22234;SDS011;11286;45.596;5.284;2022-08-21T02:57:43;3.47;;;1.60;;
22234;SDS011;11286;45.596;5.284;2022-08-21T03:00:09;2.80;;;1.40;;
22234;SDS011;11286;45.596;5.284;2022-08-21T03:02:36;1.77;;;1.33;;
22234;SDS011;11286;45.596;5.284;2022-08-21T03:05:02;3.00;;;1.25;;
22234;SDS011;11286;45.596;5.284;2022-08-21T03:07:29;3.25;;;1.20;;
22234;SDS011;11286;45.596;5.284;2022-08-21T03:09:54;5.72;;;1.60;;
22234;SDS011;11286;45.596;5.284;2022-08-21T03:12:20;2.53;;;1.38;;
22234;SDS011;11286;45.596;5.284;2022-08-21T03:14:46;5.05;;;1.83;;
22234;SDS011;11286;45.596;5.284;2022-08-21T03:17:11;3.90;;;1.70;;
22234;SDS011;11286;45.596;5.284;2022-08-21T03:19:37;3.53;;;1.35;;
22234;SDS011;11286;45.596;5.284;2022-08-21T03:22:02;3.60;;;1.77;;
22234;SDS011;11286;45.596;5.284;2022-08-21T03:24:28;3.80;;;1.50;;
22234;SDS011;11286;45.596;5.284;2022-08-21T03:26:54;3.17;;;1.70;;
22234;SDS011;11286;45.596;5.284;2022-08-21T03:29:19;1.98;;;1.40;;
22234;SDS011;11286;45.596;5.284;2022-08-21T03:31:45;4.78;;;1.50;;
22234;SDS011;11286;45.596;5.284;2022-08-21T03:34:11;4.38;;;1.60;;
22234;SDS011;11286;45.596;5.284;2022-08-21T03:36:36;4.65;;;1.30;;
22234;SDS011;11286;45.596;5.284;2022-08-21T03:39:02;4.43;;;1.52;;
22234;SDS011;11286;45.596;5.284;2022-08-21T03:41:28;3.00;;;1.45;;
22234;SDS011;11286;45.596;5.284;2022-08-21T03:43:54;1.70;;;1.23;;
22234;SDS011;11286;45.596;5.284;2022-08-21T03:46:20;1.50;;;1.40;;
22234;SDS011;11286;45.596;5.284;2022-08-21T03:48:45;5.93;;;1.65;;
22234;SDS011;11286;45.596;5.284;2022-08-21T03:51:12;4.43;;;1.40;;
22234;SDS011;11286;45.596;5.284;2022-08-21T03:53:37;3.53;;;1.60;;
22234;SDS011;11286;45.596;5.284;2022-08-21T03:56:04;4.82;;;1.58;;
22234;SDS011;11286;45.596;5.284;2022-08-21T03:58:30;3.17;;;1.50;;
22234;SDS011;11286;45.596;5.284;2022-08-21T04:00:58;3.85;;;1.48;;
22234;SDS011;11286;45.596;5.284;2022-08-21T04:03:25;3.90;;;1.60;;
22234;SDS011;11286;45.596;5.284;2022-08-21T04:05:51;2.20;;;1.60;;
22234;SDS011;11286;45.596;5.284;2022-08-21T04:08:17;2.40;;;1.50;;
22234;SDS011;11286;45.596;5.284;2022-08-21T04:10:47;2.38;;;1.40;;
22234;SDS011;11286;45.596;5.284;2022-08-21T04:13:15;4.13;;;1.70;;
22234;SDS011;11286;45.596;5.284;2022-08-21T04:15:41;3.35;;;1.55;;
22234;SDS011;11286;45.596;5.284;2022-08-21T04:18:07;3.75;;;1.75;;
22234;SDS011;11286;45.596;5.284;2022-08-21T04:20:33;2.75;;;1.70;;
22234;SDS011;11286;45.596;5.284;2022-08-21T04:22:59;2.80;;;1.63;;
22234;SDS011;11286;45.596;5.284;2022-08-21T04:25:25;5.03;;;1.75;;
22234;SDS011;11286;45.596;5.284;2022-08-21T04:27:51;3.33;;;1.77;;
22234;SDS011;11286;45.596;5.284;2022-08-21T04:30:17;5.15;;;1.60;;
22234;SDS011;11286;45.596;5.284;2022-08-21T04:32:44;4.18;;;1.83;;
22234;SDS011;11286;45.596;5.284;2022-08-21T04:35:15;4.78;;;1.50;;
22234;SDS011;11286;45.596;5.284;2022-08-21T04:37:43;2.78;;;1.50;;
22234;SDS011;11286;45.596;5.284;2022-08-21T04:40:09;8.68;;;1.85;;
22234;SDS011;11286;45.596;5.284;2022-08-21T04:42:41;6.13;;;1.77;;
22234;SDS011;11286;45.596;5.284;2022-08-21T04:45:22;2.63;;;1.60;;
22234;SDS011;11286;45.596;5.284;2022-08-21T04:47:49;6.13;;;1.80;;
22234;SDS011;11286;45.596;5.284;2022-08-21T04:50:16;4.10;;;1.90;;
22234;SDS011;11286;45.596;5.284;2022-08-21T04:52:42;4.20;;;1.80;;
22234;SDS011;11286;45.596;5.284;2022-08-21T04:55:09;3.88;;;1.70;;
22234;SDS011;11286;45.596;5.284;2022-08-21T04:57:35;3.53;;;1.92;;
22234;SDS011;11286;45.596;5.284;2022-08-21T05:00:01;3.55;;;1.70;;
22234;SDS011;11286;45.596;5.284;2022-08-21T05:02:29;4.85;;;1.85;;
22234;SDS011;11286;45.596;5.284;2022-08-21T05:04:58;4.90;;;1.75;;
22234;SDS011;11286;45.596;5.284;2022-08-21T05:07:25;4.18;;;1.92;;
22234;SDS011;11286;45.596;5.284;2022-08-21T05:09:54;8.05;;;2.08;;
22234;SDS011;11286;45.596;5.284;2022-08-21T05:12:19;4.72;;;1.90;;
22234;SDS011;11286;45.596;5.284;2022-08-21T05:14:46;3.35;;;1.70;;
22234;SDS011;11286;45.596;5.284;2022-08-21T05:17:12;3.15;;;1.80;;
22234;SDS011;11286;45.596;5.284;2022-08-21T05:19:38;4.30;;;1.85;;
22234;SDS011;11286;45.596;5.284;2022-08-21T05:22:03;4.47;;;1.83;;
22234;SDS011;11286;45.596;5.284;2022-08-21T05:24:29;5.60;;;1.80;;
22234;SDS011;11286;45.596;5.284;2022-08-21T05:26:55;3.20;;;1.70;;
22234;SDS011;11286;45.596;5.284;2022-08-21T05:29:21;8.15;;;2.00;;
22234;SDS011;11286;45.596;5.284;2022-08-21T05:31:46;5.00;;;1.80;;
22234;SDS011;11286;45.596;5.284;2022-08-21T05:34:13;5.05;;;1.70;;
22234;SDS011;11286;45.596;5.284;2022-08-21T05:36:42;5.25;;;2.28;;
22234;SDS011;11286;45.596;5.284;2022-08-21T05:39:08;5.63;;;1.60;;
22234;SDS011;11286;45.596;5.284;2022-08-21T05:41:33;6.00;;;2.00;;
22234;SDS011;11286;45.596;5.284;2022-08-21T05:43:59;4.40;;;1.70;;
22234;SDS011;11286;45.596;5.284;2022-08-21T05:46:25;1.88;;;1.67;;
22234;SDS011;11286;45.596;5.284;2022-08-21T05:48:50;2.88;;;1.80;;
22234;SDS011;11286;45.596;5.284;2022-08-21T05:51:16;3.70;;;1.67;;
22234;SDS011;11286;45.596;5.284;2022-08-21T05:53:42;6.07;;;2.10;;
22234;SDS011;11286;45.596;5.284;2022-08-21T05:56:09;5.90;;;2.00;;
22234;SDS011;11286;45.596;5.284;2022-08-21T05:58:36;5.15;;;2.13;;
22234;SDS011;11286;45.596;5.284;2022-08-21T06:01:02;4.22;;;1.90;;
22234;SDS011;11286;45.596;5.284;2022-08-21T06:03:29;2.95;;;1.70;;
22234;SDS011;11286;45.596;5.284;2022-08-21T06:05:57;3.83;;;1.80;;
22234;SDS011;11286;45.596;5.284;2022-08-21T06:08:23;3.22;;;1.67;;
22234;SDS011;11286;45.596;5.284;2022-08-21T06:10:50;2.70;;;2.00;;
22234;SDS011;11286;45.596;5.284;2022-08-21T06:13:17;3.47;;;1.77;;
22234;SDS011;11286;45.596;5.284;2022-08-21T06:15:44;2.53;;;1.58;;
22234;SDS011;11286;45.596;5.284;2022-08-21T06:18:10;2.65;;;1.90;;
22234;SDS011;11286;45.596;5.284;2022-08-21T06:20:36;2.85;;;2.05;;
22234;SDS011;11286;45.596;5.284;2022-08-21T06:23:02;4.60;;;1.95;;
22234;SDS011;11286;45.596;5.284;2022-08-21T06:25:28;3.75;;;1.83;;
22234;SDS011;11286;45.596;5.284;2022-08-21T06:27:59;2.90;;;1.83;;
22234;SDS011;11286;45.596;5.284;2022-08-21T06:30:29;5.50;;;1.88;;
22234;SDS011;11286;45.596;5.284;2022-08-21T06:32:54;5.22;;;2.30;;
22234;SDS011;11286;45.596;5.284;2022-08-21T06:35:20;6.93;;;1.90;;
22234;SDS011;11286;45.596;5.284;2022-08-21T06:37:46;3.58;;;2.08;;
22234;SDS011;11286;45.596;5.284;2022-08-21T06:40:11;4.80;;;2.10;;
22234;SDS011;11286;45.596;5.284;2022-08-21T06:42:37;7.28;;;2.03;;
22234;SDS011;11286;45.596;5.284;2022-08-21T06:45:04;4.60;;;1.90;;
22234;SDS011;11286;45.596;5.284;2022-08-21T06:47:30;5.15;;;1.90;;
22234;SDS011;11286;45.596;5.284;2022-08-21T06:49:55;3.95;;;1.77;;
22234;SDS011;11286;45.596;5.284;2022-08-21T06:52:21;5.88;;;2.08;;
22234;SDS011;11286;45.596;5.284;2022-08-21T06:54:47;4.72;;;1.70;;
22234;SDS011;11286;45.596;5.284;2022-08-21T06:57:13;4.75;;;2.20;;
22234;SDS011;11286;45.596;5.284;2022-08-21T06:59:38;4.38;;;2.05;;
22234;SDS011;11286;45.596;5.284;2022-08-21T07:02:04;6.03;;;1.80;;
22234;SDS011;11286;45.596;5.284;2022-08-21T07:04:29;3.75;;;1.60;;
22234;SDS011;11286;45.596;5.284;2022-08-21T07:06:55;2.85;;;1.77;;
22234;SDS011;11286;45.596;5.284;2022-08-21T07:09:21;3.35;;;1.90;;
22234;SDS011;11286;45.596;5.284;2022-08-21T07:11:47;3.33;;;1.80;;
22234;SDS011;11286;45.596;5.284;2022-08-21T07:14:17;3.05;;;1.90;;
22234;SDS011;11286;45.596;5.284;2022-08-21T07:16:42;3.40;;;1.90;;
22234;SDS011;11286;45.596;5.284;2022-08-21T07:19:08;3.47;;;1.88;;
22234;SDS011;11286;45.596;5.284;2022-08-21T07:21:33;4.40;;;1.90;;
22234;SDS011;11286;45.596;5.284;2022-08-21T07:23:59;4.25;;;2.03;;
22234;SDS011;11286;45.596;5.284;2022-08-21T07:26:25;4.05;;;1.80;;
22234;SDS011;11286;45.596;5.284;2022-08-21T07:28:51;6.00;;;2.35;;
22234;SDS011;11286;45.596;5.284;2022-08-21T07:31:17;5.85;;;2.00;;
22234;SDS011;11286;45.596;5.284;2022-08-21T07:33:44;5.18;;;2.28;;
22234;SDS011;11286;45.596;5.284;2022-08-21T07:36:10;6.88;;;2.20;;
22234;SDS011;11286;45.596;5.284;2022-08-21T07:38:36;3.80;;;2.17;;
22234;SDS011;11286;45.596;5.284;2022-08-21T07:41:02;4.40;;;2.10;;
22234;SDS011;11286;45.596;5.284;2022-08-21T07:43:36;4.30;;;2.25;;
22234;SDS011;11286;45.596;5.284;2022-08-21T07:46:02;5.05;;;2.20;;
22234;SDS011;11286;45.596;5.284;2022-08-21T07:48:28;4.22;;;2.10;;
22234;SDS011;11286;45.596;5.284;2022-08-21T07:50:53;3.83;;;2.53;;
22234;SDS011;11286;45.596;5.284;2022-08-21T07:53:20;6.47;;;3.30;;
22234;SDS011;11286;45.596;5.284;2022-08-21T07:55:46;3.10;;;2.20;;
22234;SDS011;11286;45.596;5.284;2022-08-21T07:58:11;6.35;;;2.13;;
22234;SDS011;11286;45.596;5.284;2022-08-21T08:00:37;4.18;;;2.20;;
22234;SDS011;11286;45.596;5.284;2022-08-21T08:03:04;5.15;;;2.70;;
22234;SDS011;11286;45.596;5.284;2022-08-21T08:05:30;4.35;;;2.10;;
22234;SDS011;11286;45.596;5.284;2022-08-21T08:07:56;4.78;;;2.20;;
22234;SDS011;11286;45.596;5.284;2022-08-21T08:10:22;3.70;;;1.90;;
22234;SDS011;11286;45.596;5.284;2022-08-21T08:12:49;2.85;;;1.92;;
22234;SDS011;11286;45.596;5.284;2022-08-21T08:15:17;2.78;;;2.03;;
22234;SDS011;11286;45.596;5.284;2022-08-21T08:17:46;3.88;;;2.10;;
22234;SDS011;11286;45.596;5.284;2022-08-21T08:20:13;4.38;;;2.25;;
22234;SDS011;11286;45.596;5.284;2022-08-21T08:22:40;4.63;;;2.30;;
22234;SDS011;11286;45.596;5.284;2022-08-21T08:25:08;4.22;;;2.28;;
22234;SDS011;11286;45.596;5.284;2022-08-21T08:27:35;4.43;;;2.22;;
22234;SDS011;11286;45.596;5.284;2022-08-21T08:30:01;3.63;;;1.80;;
22234;SDS011;11286;45.596;5.284;2022-08-21T08:32:28;3.47;;;2.00;;
22234;SDS011;11286;45.596;5.284;2022-08-21T08:34:53;4.78;;;2.40;;
22234;SDS011;11286;45.596;5.284;2022-08-21T08:37:19;5.05;;;1.95;;
22234;SDS011;11286;45.596;5.284;2022-08-21T08:39:45;3.35;;;1.75;;
22234;SDS011;11286;45.596;5.284;2022-08-21T08:42:12;3.75;;;2.05;;
22234;SDS011;11286;45.596;5.284;2022-08-21T08:45:26;4.05;;;2.20;;
22234;SDS011;11286;45.596;5.284;2022-08-21T08:47:49;4.30;;;2.28;;
22234;SDS011;11286;45.596;5.284;2022-08-21T08:50:44;4.25;;;1.95;;
22234;SDS011;11286;45.596;5.284;2022-08-21T08:53:17;4.82;;;1.95;;
22234;SDS011;11286;45.596;5.284;2022-08-21T08:55:49;4.93;;;2.10;;
22234;SDS011;11286;45.596;5.284;2022-08-21T08:58:37;9.10;;;2.42;;
22234;SDS011;11286;45.596;5.284;2022-08-21T09:01:07;4.45;;;2.10;;
22234;SDS011;11286;45.596;5.284;2022-08-21T09:03:42;2.78;;;1.70;;
22234;SDS011;11286;45.596;5.284;2022-08-21T09:09:09;3.05;;;1.92;;
22234;SDS011;11286;45.596;5.284;2022-08-21T09:12:12;3.20;;;1.60;;
22234;SDS011;11286;45.596;5.284;2022-08-21T09:23:17;4.55;;;2.00;;
22234;SDS011;11286;45.596;5.284;2022-08-21T09:28:37;3.15;;;1.73;;
22234;SDS011;11286;45.596;5.284;2022-08-21T09:31:06;2.95;;;1.60;;
22234;SDS011;11286;45.596;5.284;2022-08-21T09:33:35;2.90;;;1.95;;
22234;SDS011;11286;45.596;5.284;2022-08-21T09:36:01;3.00;;;1.60;;
22234;SDS011;11286;45.596;5.284;2022-08-21T09:38:31;3.60;;;1.70;;
22234;SDS011;11286;45.596;5.284;2022-08-21T09:41:00;4.65;;;1.90;;
22234;SDS011;11286;45.596;5.284;2022-08-21T09:43:28;2.55;;;1.58;;
22234;SDS011;11286;45.596;5.284;2022-08-21T09:46:19;2.22;;;1.50;;
22234;SDS011;11286;45.596;5.284;2022-08-21T09:48:47;2.03;;;1.33;;
22234;SDS011;11286;45.596;5.284;2022-08-21T09:51:19;3.05;;;1.60;;
22234;SDS011;11286;45.596;5.284;2022-08-21T09:53:49;3.38;;;1.77;;
22234;SDS011;11286;45.596;5.284;2022-08-21T09:56:25;3.08;;;1.60;;
22234;SDS011;11286;45.596;5.284;2022-08-21T10:01:50;3.65;;;1.85;;
22234;SDS011;11286;45.596;5.284;2022-08-21T10:04:19;2.13;;;1.60;;
22234;SDS011;11286;45.596;5.284;2022-08-21T10:06:47;1.77;;;1.52;;
22234;SDS011;11286;45.596;5.284;2022-08-21T10:09:14;2.70;;;1.70;;
22234;SDS011;11286;45.596;5.284;2022-08-21T10:11:43;2.50;;;1.75;;
22234;SDS011;11286;45.596;5.284;2022-08-21T10:34:14;4.88;;;1.90;;
22234;SDS011;11286;45.596;5.284;2022-08-21T10:42:35;3.80;;;1.52;;
22234;SDS011;11286;45.596;5.284;2022-08-21T10:45:11;4.45;;;1.50;;
22234;SDS011;11286;45.596;5.284;2022-08-21T10:47:55;3.15;;;1.40;;
22234;SDS011;11286;45.596;5.284;2022-08-21T10:50:47;2.45;;;1.35;;
22234;SDS011;11286;45.596;5.284;2022-08-21T10:56:40;4.80;;;1.73;;
22234;SDS011;11286;45.596;5.284;2022-08-21T11:01:56;2.28;;;1.67;;
22234;SDS011;11286;45.596;5.284;2022-08-21T11:04:30;2.92;;;1.58;;
22234;SDS011;11286;45.596;5.284;2022-08-21T11:07:03;2.03;;;1.10;;
22234;SDS011;11286;45.596;5.284;2022-08-21T11:09:41;3.70;;;1.23;;
22234;SDS011;11286;45.596;5.284;2022-08-21T11:17:50;4.47;;;1.60;;
22234;SDS011;11286;45.596;5.284;2022-08-21T11:23:10;3.30;;;1.88;;
22234;SDS011;11286;45.596;5.284;2022-08-21T11:25:41;2.33;;;1.45;;
22234;SDS011;11286;45.596;5.284;2022-08-21T11:28:21;3.30;;;1.60;;
22234;SDS011;11286;45.596;5.284;2022-08-21T11:31:12;6.40;;;1.40;;
22234;SDS011;11286;45.596;5.284;2022-08-21T11:34:05;3.58;;;1.60;;
22234;SDS011;11286;45.596;5.284;2022-08-21T11:36:41;3.92;;;2.00;;
22234;SDS011;11286;45.596;5.284;2022-08-21T11:39:22;3.92;;;2.03;;
22234;SDS011;11286;45.596;5.284;2022-08-21T11:52:45;2.47;;;1.60;;
22234;SDS011;11286;45.596;5.284;2022-08-21T12:00:54;2.55;;;1.70;;
22234;SDS011;11286;45.596;5.284;2022-08-21T12:03:34;3.25;;;1.80;;
22234;SDS011;11286;45.596;5.284;2022-08-21T12:06:15;5.88;;;1.70;;
22234;SDS011;11286;45.596;5.284;2022-08-21T12:09:00;2.22;;;1.40;;
22234;SDS011;11286;45.596;5.284;2022-08-21T12:11:31;1.42;;;1.30;;
22234;SDS011;11286;45.596;5.284;2022-08-21T12:19:06;2.35;;;1.52;;
22234;SDS011;11286;45.596;5.284;2022-08-21T12:21:32;3.55;;;1.20;;
22234;SDS011;11286;45.596;5.284;2022-08-21T12:29:23;4.55;;;2.20;;
22234;SDS011;11286;45.596;5.284;2022-08-21T12:34:27;2.88;;;1.60;;
22234;SDS011;11286;45.596;5.284;2022-08-21T12:37:01;3.22;;;1.48;;
22234;SDS011;11286;45.596;5.284;2022-08-21T12:39:31;2.25;;;1.30;;
22234;SDS011;11286;45.596;5.284;2022-08-21T12:42:11;3.30;;;1.77;;
22234;SDS011;11286;45.596;5.284;2022-08-21T12:44:45;1.70;;;1.10;;
22234;SDS011;11286;45.596;5.284;2022-08-21T12:47:17;3.53;;;1.50;;
22234;SDS011;11286;45.596;5.284;2022-08-21T12:49:53;2.40;;;1.10;;
22234;SDS011;11286;45.596;5.284;2022-08-21T12:54:59;1.95;;;1.10;;
22234;SDS011;11286;45.596;5.284;2022-08-21T12:57:26;1.63;;;1.20;;
22234;SDS011;11286;45.596;5.284;2022-08-21T12:59:54;3.08;;;1.25;;
22234;SDS011;11286;45.596;5.284;2022-08-21T13:02:31;2.38;;;1.30;;
22234;SDS011;11286;45.596;5.284;2022-08-21T13:05:02;2.80;;;1.50;;
22234;SDS011;11286;45.596;5.284;2022-08-21T13:07:31;2.70;;;1.27;;
22234;SDS011;11286;45.596;5.284;2022-08-21T13:10:21;2.65;;;1.35;;
22234;SDS011;11286;45.596;5.284;2022-08-21T13:12:47;3.80;;;1.27;;
22234;SDS011;11286;45.596;5.284;2022-08-21T13:15:13;4.18;;;1.52;;
22234;SDS011;11286;45.596;5.284;2022-08-21T13:17:41;2.97;;;1.23;;
22234;SDS011;11286;45.596;5.284;2022-08-21T13:20:21;3.47;;;1.10;;
22234;SDS011;11286;45.596;5.284;2022-08-21T13:22:48;3.60;;;1.30;;
22234;SDS011;11286;45.596;5.284;2022-08-21T13:25:16;2.83;;;1.20;;
22234;SDS011;11286;45.596;5.284;2022-08-21T13:27:45;2.88;;;1.40;;
22234;SDS011;11286;45.596;5.284;2022-08-21T13:30:44;2.38;;;1.40;;
22234;SDS011;11286;45.596;5.284;2022-08-21T13:33:16;2.63;;;1.30;;
22234;SDS011;11286;45.596;5.284;2022-08-21T13:35:52;2.55;;;1.45;;
22234;SDS011;11286;45.596;5.284;2022-08-21T13:38:42;2.67;;;1.40;;
22234;SDS011;11286;45.596;5.284;2022-08-21T13:43:44;3.28;;;1.50;;
22234;SDS011;11286;45.596;5.284;2022-08-21T13:46:11;1.85;;;1.23;;
22234;SDS011;11286;45.596;5.284;2022-08-21T13:48:39;4.20;;;1.65;;
22234;SDS011;11286;45.596;5.284;2022-08-21T13:51:06;3.10;;;1.50;;
22234;SDS011;11286;45.596;5.284;2022-08-21T13:53:34;3.85;;;1.52;;
22234;SDS011;11286;45.596;5.284;2022-08-21T13:56:06;4.63;;;1.52;;
22234;SDS011;11286;45.596;5.284;2022-08-21T13:58:41;2.47;;;1.45;;
22234;SDS011;11286;45.596;5.284;2022-08-21T14:01:15;2.90;;;1.50;;
22234;SDS011;11286;45.596;5.284;2022-08-21T14:03:47;2.83;;;1.20;;
22234;SDS011;11286;45.596;5.284;2022-08-21T14:06:17;3.30;;;1.60;;
22234;SDS011;11286;45.596;5.284;2022-08-21T14:08:49;4.65;;;1.80;;
22234;SDS011;11286;45.596;5.284;2022-08-21T14:11:17;4.50;;;1.25;;
22234;SDS011;11286;45.596;5.284;2022-08-21T14:13:44;2.50;;;1.23;;
22234;SDS011;11286;45.596;5.284;2022-08-21T14:16:15;2.28;;;1.50;;
22234;SDS011;11286;45.596;5.284;2022-08-21T14:21:42;3.58;;;1.67;;
22234;SDS011;11286;45.596;5.284;2022-08-21T14:24:10;3.50;;;1.40;;
22234;SDS011;11286;45.596;5.284;2022-08-21T14:27:21;2.78;;;1.73;;
22234;SDS011;11286;45.596;5.284;2022-08-21T14:29:28;1.77;;;1.40;;
22234;SDS011;11286;45.596;5.284;2022-08-21T14:32:00;3.17;;;1.60;;
22234;SDS011;11286;45.596;5.284;2022-08-21T14:34:46;3.83;;;1.40;;
22234;SDS011;11286;45.596;5.284;2022-08-21T14:37:11;2.95;;;1.50;;
22234;SDS011;11286;45.596;5.284;2022-08-21T14:39:37;3.35;;;1.33;;
22234;SDS011;11286;45.596;5.284;2022-08-21T14:42:03;3.10;;;1.80;;
22234;SDS011;11286;45.596;5.284;2022-08-21T14:44:29;2.88;;;1.90;;
22234;SDS011;11286;45.596;5.284;2022-08-21T14:46:55;2.83;;;1.83;;
22234;SDS011;11286;45.596;5.284;2022-08-21T14:49:21;3.05;;;1.40;;
22234;SDS011;11286;45.596;5.284;2022-08-21T14:51:48;1.88;;;1.17;;
22234;SDS011;11286;45.596;5.284;2022-08-21T14:54:18;2.55;;;1.40;;
22234;SDS011;11286;45.596;5.284;2022-08-21T14:56:44;2.90;;;1.40;;
22234;SDS011;11286;45.596;5.284;2022-08-21T14:59:09;2.97;;;1.40;;
22234;SDS011;11286;45.596;5.284;2022-08-21T15:01:36;3.03;;;1.50;;
22234;SDS011;11286;45.596;5.284;2022-08-21T15:04:03;2.63;;;1.58;;
22234;SDS011;11286;45.596;5.284;2022-08-21T15:06:29;3.00;;;1.75;;
22234;SDS011;11286;45.596;5.284;2022-08-21T15:08:55;2.88;;;1.73;;
22234;SDS011;11286;45.596;5.284;2022-08-21T15:11:21;3.40;;;1.67;;
22234;SDS011;11286;45.596;5.284;2022-08-21T15:13:50;3.40;;;2.17;;
22234;SDS011;11286;45.596;5.284;2022-08-21T15:16:20;4.00;;;1.92;;
22234;SDS011;11286;45.596;5.284;2022-08-21T15:18:46;3.03;;;1.70;;
22234;SDS011;11286;45.596;5.284;2022-08-21T15:21:11;3.58;;;1.80;;
22234;SDS011;11286;45.596;5.284;2022-08-21T15:23:37;3.47;;;1.95;;
22234;SDS011;11286;45.596;5.284;2022-08-21T15:26:03;4.82;;;2.75;;
22234;SDS011;11286;45.596;5.284;2022-08-21T15:28:29;3.60;;;2.58;;
22234;SDS011;11286;45.596;5.284;2022-08-21T15:30:55;3.97;;;2.35;;
22234;SDS011;11286;45.596;5.284;2022-08-21T15:33:21;3.40;;;1.92;;
22234;SDS011;11286;45.596;5.284;2022-08-21T15:35:47;2.80;;;2.40;;
22234;SDS011;11286;45.596;5.284;2022-08-21T15:38:14;4.47;;;2.10;;
22234;SDS011;11286;45.596;5.284;2022-08-21T15:40:40;2.67;;;1.80;;
22234;SDS011;11286;45.596;5.284;2022-08-21T15:43:21;3.90;;;2.10;;
22234;SDS011;11286;45.596;5.284;2022-08-21T15:45:47;4.80;;;2.40;;
22234;SDS011;11286;45.596;5.284;2022-08-21T15:48:13;3.95;;;2.33;;
22234;SDS011;11286;45.596;5.284;2022-08-21T15:50:39;6.78;;;2.50;;
22234;SDS011;11286;45.596;5.284;2022-08-21T15:53:04;3.85;;;2.55;;
22234;SDS011;11286;45.596;5.284;2022-08-21T15:55:32;3.30;;;2.55;;
22234;SDS011;11286;45.596;5.284;2022-08-21T15:57:58;6.22;;;3.17;;
22234;SDS011;11286;45.596;5.284;2022-08-21T16:00:24;6.75;;;3.25;;
22234;SDS011;11286;45.596;5.284;2022-08-21T16:02:51;7.18;;;3.90;;
22234;SDS011;11286;45.596;5.284;2022-08-21T16:05:19;7.50;;;4.55;;
22234;SDS011;11286;45.596;5.284;2022-08-21T16:07:47;11.23;;;5.25;;
22234;SDS011;11286;45.596;5.284;2022-08-21T16:10:14;11.73;;;5.55;;
22234;SDS011;11286;45.596;5.284;2022-08-21T16:12:43;6.97;;;4.20;;
22234;SDS011;11286;45.596;5.284;2022-08-21T16:15:13;6.07;;;3.90;;
22234;SDS011;11286;45.596;5.284;2022-08-21T16:17:40;5.22;;;3.30;;
22234;SDS011;11286;45.596;5.284;2022-08-21T16:20:12;3.80;;;3.00;;
22234;SDS011;11286;45.596;5.284;2022-08-21T16:22:41;5.05;;;3.10;;
22234;SDS011;11286;45.596;5.284;2022-08-21T16:25:07;4.35;;;3.28;;
22234;SDS011;11286;45.596;5.284;2022-08-21T16:27:33;4.45;;;3.00;;
22234;SDS011;11286;45.596;5.284;2022-08-21T16:30:00;7.07;;;3.47;;
22234;SDS011;11286;45.596;5.284;2022-08-21T16:32:27;5.07;;;3.13;;